createdAt,value
2023-05-16T00:01:55.694Z,11.60
2023-05-16T00:06:53.214Z,11.80
2023-05-16T00:09:21.740Z,12.30
2023-05-16T00:16:05.245Z,11.80
2023-05-16T00:21:02.235Z,12.00
2023-05-16T00:30:55.794Z,12.10
2023-05-16T00:33:26.194Z,12.10
2023-05-16T00:35:54.789Z,12.10
2023-05-16T00:38:22.886Z,11.80
2023-05-16T00:40:51.469Z,11.80
2023-05-16T00:43:19.592Z,11.90
2023-05-16T00:45:47.773Z,12.10
2023-05-16T00:48:16.817Z,11.70
2023-05-16T00:50:46.616Z,12.10
2023-05-16T00:58:13.092Z,11.90
2023-05-16T01:03:10.315Z,11.80
2023-05-16T01:05:39.361Z,12.20
2023-05-16T01:08:08.836Z,12.20
2023-05-16T01:10:43.299Z,12.30
2023-05-16T01:13:19.481Z,12.10
2023-05-16T01:15:52.495Z,12.10
2023-05-16T01:18:28.797Z,12.30
2023-05-16T01:21:04.146Z,12.20
2023-05-16T01:23:52.826Z,12.20
2023-05-16T01:26:23.999Z,12.30
2023-05-16T01:28:53.955Z,12.00
2023-05-16T01:31:22.850Z,12.40
2023-05-16T01:36:27.236Z,11.60
2023-05-16T01:39:22.002Z,11.50
2023-05-16T01:42:00.766Z,11.30
2023-05-16T01:44:34.896Z,11.50
2023-05-16T01:47:08.169Z,11.90
2023-05-16T01:49:40.313Z,11.90
2023-05-16T01:52:12.484Z,11.90
2023-05-16T01:54:45.142Z,11.90
2023-05-16T01:57:14.970Z,12.30
2023-05-16T01:59:43.914Z,12.10
2023-05-16T02:02:12.312Z,12.20
2023-05-16T02:04:40.462Z,11.80
2023-05-16T02:07:08.921Z,11.50
2023-05-16T02:14:35.943Z,11.50
2023-05-16T02:19:32.787Z,11.00
2023-05-16T02:22:02.106Z,11.20
2023-05-16T02:31:56.971Z,11.00
2023-05-16T02:34:25.102Z,11.00
2023-05-16T02:36:53.190Z,11.00
2023-05-16T02:39:23.636Z,11.20
2023-05-16T02:44:21.106Z,10.80
2023-05-16T02:46:49.536Z,10.80
2023-05-16T02:49:19.027Z,11.00
2023-05-16T02:59:13.866Z,10.90
2023-05-16T03:01:42.092Z,10.50
2023-05-16T03:06:40.276Z,11.00
2023-05-16T03:09:08.917Z,10.90
2023-05-16T03:11:38.202Z,10.90
2023-05-16T03:16:36.826Z,10.90
2023-05-16T03:21:35.138Z,11.00
2023-05-16T03:24:05.075Z,10.80
2023-05-16T03:26:33.406Z,11.20
2023-05-16T03:36:28.781Z,11.20
2023-05-16T03:38:56.938Z,11.20
2023-05-16T03:41:27.119Z,11.20
2023-05-16T03:43:55.199Z,11.30
2023-05-16T03:46:23.563Z,11.00
2023-05-16T03:48:51.907Z,11.30
2023-05-16T03:58:47.180Z,11.40
2023-05-16T04:03:43.988Z,11.50
2023-05-16T04:16:08.660Z,11.70
2023-05-16T04:23:34.292Z,11.60
2023-05-16T04:28:32.950Z,11.90
2023-05-16T04:33:31.617Z,12.10
2023-05-16T04:45:54.762Z,12.30
2023-05-16T04:48:22.896Z,12.30
2023-05-16T04:50:52.463Z,12.60
2023-05-16T04:53:20.765Z,12.40
2023-05-16T04:58:17.296Z,12.70
2023-05-16T05:08:12.743Z,13.00
2023-05-16T05:10:41.638Z,12.90
2023-05-16T05:15:38.294Z,13.40
2023-05-16T05:25:34.878Z,13.90
2023-05-16T05:28:04.873Z,14.10
2023-05-16T05:30:33.466Z,14.10
2023-05-16T05:33:01.768Z,13.90
2023-05-16T05:42:57.643Z,14.30
2023-05-16T05:57:48.931Z,15.80
2023-05-16T06:00:18.885Z,16.30
2023-05-16T06:02:48.453Z,16.10
2023-05-16T06:07:45.335Z,16.30
2023-05-16T06:12:42.054Z,16.60
2023-05-16T06:15:11.702Z,16.50
2023-05-16T06:17:42.253Z,16.60
2023-05-16T06:20:11.491Z,16.40
2023-05-16T06:22:39.627Z,15.90
2023-05-16T06:25:08.626Z,16.00
2023-05-16T06:30:06.462Z,16.30
2023-05-16T06:32:34.642Z,15.20
2023-05-16T06:35:06.766Z,15.40
2023-05-16T06:37:35.082Z,15.40
2023-05-16T06:40:03.473Z,15.10
2023-05-16T06:42:31.935Z,15.50
2023-05-16T06:45:00.692Z,14.70
2023-05-16T06:49:57.833Z,14.90
2023-05-16T06:52:27.522Z,15.30
2023-05-16T06:54:55.795Z,14.90
2023-05-16T06:59:52.699Z,15.90
2023-05-16T07:02:21.139Z,15.50
2023-05-16T07:04:49.419Z,16.40
2023-05-16T07:09:47.573Z,15.90
2023-05-16T07:17:12.947Z,15.90
2023-05-16T07:22:11.138Z,16.30
2023-05-16T07:24:39.305Z,16.10
2023-05-16T07:27:09.086Z,16.10
2023-05-16T07:29:37.481Z,16.10
2023-05-16T07:32:06.699Z,15.60
2023-05-16T07:34:34.968Z,15.90
2023-05-16T07:37:03.501Z,16.20
2023-05-16T07:39:31.732Z,16.10
2023-05-16T07:44:29.866Z,16.30
2023-05-16T07:46:58.069Z,16.20
2023-05-16T07:56:51.782Z,16.60
2023-05-16T07:59:19.960Z,16.50
2023-05-16T08:01:49.901Z,16.60
2023-05-16T08:04:18.121Z,15.90
2023-05-16T08:06:46.353Z,16.80
2023-05-16T08:11:45.418Z,17.60
2023-05-16T08:14:13.734Z,17.70
2023-05-16T08:16:42.021Z,17.70
2023-05-16T08:19:11.859Z,17.50
2023-05-16T08:24:11.248Z,18.30
2023-05-16T08:26:39.513Z,17.00
2023-05-16T08:34:06.590Z,16.70
2023-05-16T08:39:04.971Z,17.40
2023-05-16T08:41:33.254Z,17.30
2023-05-16T08:44:01.622Z,16.90
2023-05-16T08:46:33.990Z,17.00
2023-05-16T08:49:04.778Z,17.20
2023-05-16T08:51:36.586Z,17.30
2023-05-16T08:54:08.041Z,17.20
2023-05-16T08:56:37.403Z,17.20
2023-05-16T08:59:06.194Z,16.70
2023-05-16T09:01:35.073Z,17.10
2023-05-16T09:04:05.186Z,17.70
2023-05-16T09:06:33.490Z,18.20
2023-05-16T09:09:04.798Z,17.40
2023-05-16T09:14:05.953Z,17.90
2023-05-16T09:16:34.229Z,18.00
2023-05-16T09:19:04.832Z,17.10
2023-05-16T09:21:35.375Z,17.30
2023-05-16T09:24:09.558Z,18.10
2023-05-16T09:26:39.671Z,18.60
2023-05-16T09:29:13.141Z,18.50
2023-05-16T09:31:42.099Z,17.80
2023-05-16T09:34:11.382Z,17.70
2023-05-16T09:36:42.116Z,17.80
2023-05-16T09:39:17.310Z,17.80
2023-05-16T09:41:45.973Z,18.20
2023-05-16T09:44:14.504Z,18.00
2023-05-16T09:46:43.108Z,19.00
2023-05-16T09:49:13.721Z,18.90
2023-05-16T09:51:42.442Z,19.70
2023-05-16T09:54:12.307Z,19.50
2023-05-16T09:56:50.782Z,19.60
2023-05-16T09:59:19.110Z,19.10
2023-05-16T10:06:47.003Z,19.70
2023-05-16T10:09:17.603Z,20.60
2023-05-16T10:11:47.561Z,19.70
2023-05-16T10:14:19.548Z,19.80
2023-05-16T10:16:50.305Z,18.40
2023-05-16T10:19:21.602Z,18.80
2023-05-16T10:21:53.901Z,19.30
2023-05-16T10:24:32.641Z,19.10
2023-05-16T10:27:03.417Z,19.40
2023-05-16T10:29:40.082Z,19.20
2023-05-16T10:34:44.996Z,20.10
2023-05-16T10:37:13.443Z,20.50
2023-05-16T10:39:43.276Z,20.10
2023-05-16T10:44:48.585Z,18.80
2023-05-16T10:54:53.294Z,19.10
2023-05-16T10:57:24.924Z,19.00
2023-05-16T10:59:53.955Z,18.80
2023-05-16T11:02:32.485Z,19.10
2023-05-16T11:05:01.932Z,19.60
2023-05-16T11:07:34.526Z,20.70
2023-05-16T11:10:11.060Z,21.60
2023-05-16T11:12:45.019Z,22.00
2023-05-16T11:15:28.549Z,20.90
2023-05-16T11:18:08.707Z,20.40
2023-05-16T11:20:38.145Z,20.90
2023-05-16T11:23:23.567Z,20.60
2023-05-16T11:25:56.007Z,20.50
2023-05-16T11:28:26.877Z,20.70
2023-05-16T11:30:57.608Z,20.20
2023-05-16T11:33:26.117Z,21.10
2023-05-16T11:36:15.293Z,21.00
2023-05-16T11:38:44.622Z,21.50
2023-05-16T11:41:15.658Z,20.40
2023-05-16T11:43:45.270Z,20.60
2023-05-16T11:46:14.189Z,21.20
2023-05-16T11:48:42.905Z,21.70
2023-05-16T11:56:09.986Z,20.40
2023-05-16T11:58:39.792Z,20.50
2023-05-16T12:01:08.233Z,19.40
2023-05-16T12:03:37.141Z,19.90
2023-05-16T12:08:34.406Z,20.20
2023-05-16T12:23:29.360Z,22.20
2023-05-16T12:26:01.024Z,22.30
2023-05-16T12:28:34.723Z,20.70
2023-05-16T12:36:04.632Z,20.70
2023-05-16T12:43:33.143Z,19.70
2023-05-16T12:46:01.529Z,21.00
2023-05-16T12:48:35.287Z,21.20
2023-05-16T12:51:15.046Z,20.60
2023-05-16T12:53:54.457Z,20.20
2023-05-16T13:06:26.769Z,19.80
2023-05-16T13:08:55.094Z,20.80
2023-05-16T13:11:23.645Z,21.60
2023-05-16T13:13:51.894Z,21.90
2023-05-16T13:18:49.483Z,20.90
2023-05-16T13:21:19.254Z,20.80
2023-05-16T13:23:47.387Z,20.40
2023-05-16T13:26:15.704Z,21.40
2023-05-16T13:31:12.585Z,20.10
2023-05-16T13:33:40.888Z,20.50
2023-05-16T13:36:09.911Z,20.80
2023-05-16T13:38:39.524Z,20.90
2023-05-16T13:41:07.793Z,20.30
2023-05-16T13:43:36.113Z,20.90
2023-05-16T13:48:33.063Z,20.20
2023-05-16T13:51:01.265Z,20.70
2023-05-16T13:55:59.416Z,21.80
2023-05-16T14:00:56.631Z,21.40
2023-05-16T14:05:53.717Z,21.60
2023-05-16T14:08:21.993Z,21.10
2023-05-16T14:10:50.425Z,21.50
2023-05-16T14:13:19.893Z,21.60
2023-05-16T14:15:48.375Z,22.10
2023-05-16T14:18:16.771Z,22.50
2023-05-16T14:20:44.986Z,22.50
2023-05-16T14:23:13.063Z,21.80
2023-05-16T14:25:41.347Z,21.70
2023-05-16T14:28:09.451Z,21.30
2023-05-16T14:30:39.115Z,21.10
2023-05-16T14:33:07.381Z,21.30
2023-05-16T14:35:38.306Z,21.30
2023-05-16T14:40:35.583Z,20.80
2023-05-16T14:45:33.319Z,21.40
2023-05-16T14:48:03.225Z,21.20
2023-05-16T14:53:00.000Z,20.60
2023-05-16T14:58:00.054Z,19.90
2023-05-16T15:02:57.891Z,20.20
2023-05-16T15:05:29.594Z,19.80
2023-05-16T15:07:58.031Z,19.40
2023-05-16T15:10:26.579Z,20.30
2023-05-16T15:12:55.152Z,20.90
2023-05-16T15:20:22.546Z,21.60
2023-05-16T15:22:52.427Z,21.00
2023-05-16T15:25:21.011Z,19.40
2023-05-16T15:30:17.842Z,19.80
2023-05-16T15:37:44.450Z,19.90
2023-05-16T15:40:15.520Z,19.90
2023-05-16T15:42:44.972Z,19.90
2023-05-16T15:45:13.403Z,20.70
2023-05-16T15:47:42.984Z,19.60
2023-05-16T15:50:12.544Z,20.30
2023-05-16T15:52:41.113Z,20.10
2023-05-16T15:57:42.167Z,19.80
2023-05-16T16:00:11.343Z,19.80
2023-05-16T16:02:44.984Z,19.80
2023-05-16T16:05:13.456Z,19.50
2023-05-16T16:07:41.644Z,19.40
2023-05-16T16:10:10.879Z,19.20
2023-05-16T16:12:39.050Z,19.10
2023-05-16T16:15:11.020Z,19.50
2023-05-16T16:20:08.906Z,19.70
2023-05-16T16:22:37.177Z,19.30
2023-05-16T16:25:06.447Z,19.70
2023-05-16T16:30:03.437Z,19.30
2023-05-16T16:32:35.536Z,19.30
2023-05-16T16:37:33.869Z,19.00
2023-05-16T16:40:04.337Z,19.10
2023-05-16T16:45:00.973Z,19.70
2023-05-16T16:47:29.398Z,18.20
2023-05-16T16:49:59.095Z,19.20
2023-05-16T16:54:56.094Z,18.90
2023-05-16T16:59:53.228Z,18.80
2023-05-16T17:07:20.681Z,18.90
2023-05-16T17:09:49.070Z,19.00
2023-05-16T17:14:49.075Z,19.30
2023-05-16T17:19:47.917Z,18.90
2023-05-16T17:22:16.349Z,18.20
2023-05-16T17:24:46.482Z,19.00
2023-05-16T17:32:11.918Z,18.40
2023-05-16T17:37:10.549Z,18.40
2023-05-16T17:39:38.932Z,18.30
2023-05-16T17:42:09.249Z,18.60
2023-05-16T17:44:37.986Z,18.30
2023-05-16T17:47:06.748Z,18.40
2023-05-16T17:54:32.731Z,17.60
2023-05-16T17:57:01.562Z,17.50
2023-05-16T17:59:31.347Z,17.80
2023-05-16T18:01:59.875Z,17.50
2023-05-16T18:04:28.256Z,17.30
2023-05-16T18:09:25.607Z,17.30
2023-05-16T18:11:54.003Z,17.10
2023-05-16T18:14:22.405Z,17.00
2023-05-16T18:16:52.035Z,17.30
2023-05-16T18:24:17.964Z,17.10
2023-05-16T18:31:45.939Z,17.30
2023-05-16T18:34:15.582Z,16.60
2023-05-16T18:39:12.808Z,17.00
2023-05-16T18:41:41.640Z,16.80
2023-05-16T18:46:38.670Z,16.60
2023-05-16T18:49:07.070Z,16.70
2023-05-16T18:51:36.641Z,16.40
2023-05-16T18:59:03.224Z,16.40
2023-05-16T19:04:00.225Z,16.50
2023-05-16T19:06:28.558Z,16.70
2023-05-16T19:08:58.408Z,16.20
2023-05-16T19:11:26.921Z,16.20
2023-05-16T19:16:23.805Z,16.30
2023-05-16T19:18:52.276Z,16.20
2023-05-16T19:23:49.282Z,16.50
2023-05-16T19:26:19.220Z,16.10
2023-05-16T19:33:47.478Z,16.10
2023-05-16T19:38:44.571Z,16.10
2023-05-16T19:43:42.692Z,16.50
2023-05-16T19:48:39.627Z,16.00
2023-05-16T19:56:06.741Z,16.40
2023-05-16T19:58:34.959Z,16.10
2023-05-16T20:06:02.233Z,17.10
2023-05-16T20:08:30.572Z,16.00
2023-05-16T20:13:27.612Z,15.90
2023-05-16T20:18:26.331Z,16.30
2023-05-16T20:20:55.801Z,15.90
2023-05-16T20:23:24.985Z,15.70
2023-05-16T20:25:53.215Z,15.70
2023-05-16T20:30:49.838Z,15.60
2023-05-16T20:33:18.072Z,16.00
2023-05-16T20:35:47.751Z,16.40
2023-05-16T20:38:16.773Z,15.80
2023-05-16T20:43:13.480Z,16.00
2023-05-16T20:45:41.799Z,15.50
2023-05-16T20:50:39.007Z,15.40
2023-05-16T20:53:08.612Z,15.40
2023-05-16T20:55:36.827Z,15.60
2023-05-16T21:00:34.026Z,15.50
2023-05-16T21:03:02.210Z,15.90
2023-05-16T21:10:31.022Z,15.30
2023-05-16T21:17:56.842Z,15.90
2023-05-16T21:20:25.130Z,15.40
2023-05-16T21:25:21.956Z,15.70
2023-05-16T21:27:51.411Z,15.70
2023-05-16T21:32:48.394Z,15.60
2023-05-16T21:35:16.647Z,15.30
2023-05-16T21:37:44.882Z,15.40
2023-05-16T21:40:18.895Z,15.70
2023-05-16T21:42:47.315Z,15.50
2023-05-16T21:45:16.813Z,15.80
2023-05-16T21:50:14.107Z,15.30
2023-05-16T21:52:43.068Z,15.60
2023-05-16T21:57:40.259Z,16.00
2023-05-16T22:00:09.940Z,15.70
2023-05-16T22:02:39.722Z,15.50
2023-05-16T22:05:09.380Z,15.80
2023-05-16T22:07:38.216Z,15.60
2023-05-16T22:10:07.537Z,15.30
2023-05-16T22:12:36.024Z,15.50
2023-05-16T22:20:03.230Z,15.70
2023-05-16T22:22:31.618Z,15.50
2023-05-16T22:27:28.350Z,15.60
2023-05-16T22:32:25.134Z,15.40
2023-05-16T22:34:54.101Z,15.50
2023-05-16T22:37:23.732Z,15.40
2023-05-16T22:42:21.605Z,15.20
2023-05-16T22:44:50.191Z,15.00
2023-05-16T22:47:18.427Z,15.10
2023-05-16T22:49:46.622Z,15.30
2023-05-16T22:52:14.950Z,15.20
2023-05-16T22:54:44.431Z,15.40
2023-05-16T22:57:12.644Z,14.90
2023-05-16T23:07:06.720Z,15.30
2023-05-16T23:09:34.910Z,15.00
2023-05-16T23:12:05.027Z,14.40
2023-05-16T23:17:01.997Z,15.10
2023-05-16T23:21:59.154Z,14.60
2023-05-16T23:24:27.314Z,14.50
2023-05-16T23:26:55.643Z,14.60
2023-05-16T23:29:25.180Z,14.20
2023-05-16T23:31:53.461Z,14.00
2023-05-16T23:34:21.625Z,14.40
2023-05-16T23:39:18.444Z,14.30
2023-05-16T23:44:15.108Z,14.50
2023-05-16T23:46:44.631Z,14.10
2023-05-16T23:56:53.872Z,14.00
